Time;durP1;ratioP1;P1;durP2;ratioP2;P2;SDS_P1;SDS_P2;PMS_P1;PMS_P2;Temp;Humidity;BMP_temperature;BMP_pressure;BME280_temperature;BME280_humidity;BME280_pressure;Samples;Min_cycle;Max_cycle;Signal;HPM_P1;HPM_P2
2022/02/19 00:00:49;;;;;;;3.38;1.08;;;7.60;99.90;;;;;;4962420;28;20050;-86
2022/02/19 06:02:04;;;;;;;7.40;1.40;;;6.20;95.70;;;;;;5169253;23;20676;-78
2022/02/19 06:04:31;;;;;;;3.92;0.90;;;6.20;94.90;;;;;;4944414;29;20301;-79
2022/02/19 06:06:58;;;;;;;5.47;1.00;;;6.30;94.60;;;;;;4959990;29;20323;-79
2022/02/19 06:09:25;;;;;;;7.28;1.60;;;6.20;94.30;;;;;;4957813;29;20051;-79
2022/02/19 06:11:52;;;;;;;7.22;1.45;;;6.30;91.40;;;;;;4944745;29;20090;-76
2022/02/19 06:14:20;;;;;;;8.10;1.30;;;6.10;90.60;;;;;;4953818;29;20115;-80
2022/02/19 06:16:47;;;;;;;7.78;1.40;;;6.10;92.50;;;;;;4954575;29;20058;-78
2022/02/19 06:19:15;;;;;;;6.50;1.00;;;6.10;91.70;;;;;;4953624;29;20381;-80
2022/02/19 06:21:43;;;;;;;6.30;1.30;;;6.10;93.00;;;;;;4947120;29;20396;-76
2022/02/19 06:24:10;;;;;;;6.55;1.10;;;6.10;92.60;;;;;;4932435;29;20142;-76
2022/02/19 06:26:37;;;;;;;6.15;1.40;;;6.10;93.10;;;;;;4935797;29;20130;-76
2022/02/19 06:29:04;;;;;;;7.63;1.77;;;6.20;95.80;;;;;;4932896;29;20408;-76
2022/02/19 06:31:33;;;;;;;8.63;1.30;;;;;;;;;;4937553;29;20047;-73
2022/02/19 06:34:03;;;;;;;6.05;1.17;;;;;;;;;;4935315;29;20481;-75
2022/02/19 06:36:35;;;;;;;6.35;1.15;;;;;;;;;;4926372;29;20122;-76
2022/02/19 06:39:06;;;;;;;7.82;1.30;;;;;;;;;;4938924;29;20046;-77
2022/02/19 06:41:37;;;;;;;7.68;1.15;;;;;;;;;;4933167;29;20055;-78
2022/02/19 06:44:06;;;;;;;4.25;1.05;;;;;;;;;;4939986;29;20054;-79
2022/02/19 06:46:36;;;;;;;8.27;1.80;;;;;;;;;;4937197;29;20067;-78
2022/02/19 06:49:03;;;;;;;8.38;1.63;;;;;;;;;;4938850;29;20058;-78
2022/02/19 06:51:33;;;;;;;5.47;1.33;;;;;;;;;;4931464;29;20064;-77
2022/02/19 06:54:00;;;;;;;8.57;1.20;;;;;;;;;;4938835;29;20480;-78
2022/02/19 06:56:30;;;;;;;7.20;1.30;;;;;;;;;;4938988;29;20079;-77
2022/02/19 06:58:59;;;;;;;4.45;1.00;;;;;;;;;;4939502;29;20177;-78
2022/02/19 07:01:27;;;;;;;7.35;1.55;;;;;;;;;;4944663;29;20527;-79
2022/02/19 07:03:54;;;;;;;6.35;1.42;;;;;;;;;;4944210;29;20046;-78
2022/02/19 07:06:22;;;;;;;6.53;1.20;;;;;;;;;;4940680;29;20575;-78
2022/02/19 07:08:50;;;;;;;6.28;1.30;;;;;;;;;;4936911;29;20047;-74
2022/02/19 07:11:18;;;;;;;6.22;1.00;;;;;;;;;;4947352;29;20135;-75
2022/02/19 07:13:45;;;;;;;7.10;1.25;;;;;;;;;;4947741;29;20131;-77
2022/02/19 07:16:12;;;;;;;5.25;1.23;;;;;;;;;;4931005;29;20056;-77
2022/02/19 07:18:40;;;;;;;5.38;1.25;;;;;;;;;;4931899;29;20117;-78
2022/02/19 07:21:07;;;;;;;8.02;1.45;;;;;;;;;;4937967;29;20157;-77
2022/02/19 07:23:34;;;;;;;9.90;1.67;;;;;;;;;;4938980;29;20080;-77
2022/02/19 07:26:03;;;;;;;5.60;1.10;;;;;;;;;;4938319;29;20078;-79
2022/02/19 07:28:30;;;;;;;9.50;2.00;;;;;;;;;;4937475;29;20535;-78
2022/02/19 07:30:58;;;;;;;7.05;2.38;;;;;;;;;;4938933;29;20072;-79
2022/02/19 07:33:25;;;;;;;7.18;1.48;;;;;;;;;;4937810;29;20102;-80
2022/02/19 07:35:53;;;;;;;5.80;1.40;;;;;;;;;;4935679;29;20431;-79
2022/02/19 07:38:20;;;;;;;4.97;1.00;;;;;;;;;;4937356;29;20102;-79
2022/02/19 07:40:47;;;;;;;6.45;1.63;;;;;;;;;;4938779;29;23279;-79
2022/02/19 07:43:16;;;;;;;8.20;1.20;;;;;;;;;;4938558;29;20050;-78
2022/02/19 07:45:44;;;;;;;7.10;1.20;;;;;;;;;;4940561;29;20483;-78
2022/02/19 07:48:14;;;;;;;8.13;1.50;;;;;;;;;;4937792;29;20052;-75
2022/02/19 07:58:57;;;;;;;7.72;1.30;;;;;;;;;;4938035;29;20480;-79
2022/02/19 08:01:24;;;;;;;8.13;1.50;;;;;;;;;;4937221;29;20492;-77
2022/02/19 08:03:52;;;;;;;5.97;1.20;;;;;;;;;;4937846;29;20126;-79
2022/02/19 08:06:19;;;;;;;6.88;1.17;;;;;;;;;;4940089;29;20054;-79
2022/02/19 08:08:46;;;;;;;6.57;1.42;;;;;;;;;;4937198;29;20134;-78
2022/02/19 08:11:14;;;;;;;5.35;1.55;;;;;;;;;;4937549;29;20134;-79
2022/02/19 08:13:42;;;;;;;9.38;1.60;;;;;;;;;;4940340;29;20051;-80
2022/02/19 08:16:11;;;;;;;7.30;1.40;;;;;;;;;;4955852;29;20048;-80
2022/02/19 08:18:38;;;;;;;9.32;1.50;;;;;;;;;;4955811;29;20213;-79
2022/02/19 08:21:11;;;;;;;7.10;1.50;;;;;;;;;;4955940;29;20415;-78
2022/02/19 08:23:38;;;;;;;7.72;1.70;;;6.80;97.80;;;;;;4956911;29;20726;-77
2022/02/19 08:26:05;;;;;;;9.30;1.52;;;6.70;97.00;;;;;;4951799;29;20509;-79
2022/02/19 08:28:32;;;;;;;11.88;1.92;;;6.70;96.90;;;;;;4934507;29;20067;-78
2022/02/19 08:30:59;;;;;;;5.57;1.25;;;6.80;96.70;;;;;;4939478;29;20552;-79
2022/02/19 08:33:29;;;;;;;4.20;1.05;;;6.80;96.00;;;;;;4936489;29;20078;-77
2022/02/19 08:35:56;;;;;;;8.50;1.83;;;6.70;95.60;;;;;;4934551;29;20044;-77
2022/02/19 08:38:23;;;;;;;5.90;1.35;;;6.80;95.20;;;;;;4948899;29;20051;-80
2022/02/19 08:40:50;;;;;;;7.80;1.30;;;6.80;94.70;;;;;;4955727;29;20514;-78
2022/02/19 08:43:17;;;;;;;8.48;1.45;;;6.90;94.50;;;;;;4953014;29;20044;-78
2022/02/19 08:45:46;;;;;;;6.65;1.30;;;6.90;93.80;;;;;;4937063;29;20043;-79
2022/02/19 08:48:13;;;;;;;8.85;1.30;;;7.00;93.70;;;;;;4936102;29;20055;-79
2022/02/19 08:50:42;;;;;;;6.47;1.23;;;6.90;92.90;;;;;;4935999;29;20138;-80
2022/02/19 08:53:09;;;;;;;4.70;1.15;;;6.80;92.30;;;;;;4933815;29;20134;-79
2022/02/19 08:55:37;;;;;;;7.03;1.48;;;6.90;92.20;;;;;;4936388;29;20044;-78
2022/02/19 08:58:04;;;;;;;6.63;1.58;;;7.00;92.20;;;;;;4941438;29;20143;-78
2022/02/19 09:00:32;;;;;;;7.78;1.20;;;7.00;92.10;;;;;;4931391;29;20052;-79
2022/02/19 09:02:59;;;;;;;6.40;1.38;;;7.10;91.90;;;;;;4936711;29;20075;-78
2022/02/19 09:05:26;;;;;;;6.22;1.30;;;7.20;91.90;;;;;;4935773;29;20119;-78
2022/02/19 09:07:55;;;;;;;6.78;1.45;;;7.20;91.70;;;;;;4936581;29;20055;-78
2022/02/19 09:10:22;;;;;;;6.05;1.70;;;7.20;91.70;;;;;;4936349;29;20568;-79
2022/02/19 09:12:50;;;;;;;7.30;1.55;;;7.20;90.90;;;;;;4936086;29;20048;-81
2022/02/19 09:15:20;;;;;;;5.90;1.52;;;7.20;91.30;;;;;;4942040;29;20077;-78
2022/02/19 09:17:48;;;;;;;6.85;1.58;;;7.30;90.90;;;;;;4936113;29;20047;-79
2022/02/19 09:20:17;;;;;;;6.13;1.35;;;7.20;90.80;;;;;;4935672;29;20138;-78
2022/02/19 09:22:44;;;;;;;8.50;1.42;;;7.20;90.70;;;;;;4942462;29;20055;-78
2022/02/19 09:25:13;;;;;;;7.38;1.58;;;7.10;90.70;;;;;;4954162;29;20494;-82
2022/02/19 09:27:41;;;;;;;6.63;1.42;;;7.10;91.30;;;;;;4945460;29;20134;-82
2022/02/19 09:30:11;;;;;;;7.75;1.25;;;7.20;90.70;;;;;;4955107;29;20515;-83
2022/02/19 09:32:38;;;;;;;10.02;1.70;;;7.30;90.70;;;;;;4955353;29;20515;-82
2022/02/19 09:35:07;;;;;;;20.13;7.25;;;7.30;91.00;;;;;;4954036;29;20081;-83
2022/02/19 09:37:34;;;;;;;8.73;2.35;;;7.30;90.90;;;;;;4955536;29;20043;-82
2022/02/19 09:40:02;;;;;;;5.38;1.30;;;7.40;90.40;;;;;;4955944;29;20054;-83
2022/02/19 09:42:30;;;;;;;5.97;1.42;;;7.30;90.10;;;;;;4955661;29;20094;-83
2022/02/19 09:44:57;;;;;;;8.55;1.23;;;7.40;90.30;;;;;;4954215;29;20130;-79
2022/02/19 09:47:27;;;;;;;7.18;1.40;;;7.40;90.40;;;;;;4954544;29;20057;-81
2022/02/19 09:49:54;;;;;;;6.03;1.27;;;7.50;90.60;;;;;;4955170;29;20126;-85
2022/02/19 09:52:23;;;;;;;6.28;1.55;;;7.50;88.40;;;;;;4936853;29;20472;-79
2022/02/19 09:54:51;;;;;;;4.43;0.98;;;7.50;88.30;;;;;;4951851;29;20058;-82
2022/02/19 09:57:18;;;;;;;7.32;1.40;;;7.40;87.30;;;;;;4954568;29;20138;-81
2022/02/19 09:59:46;;;;;;;5.53;1.45;;;7.40;86.10;;;;;;4955146;29;20051;-79
2022/02/19 10:02:13;;;;;;;7.18;1.67;;;7.50;86.20;;;;;;4953981;29;20051;-77
2022/02/19 10:04:45;;;;;;;5.40;1.20;;;7.50;87.20;;;;;;4949870;29;20560;-76
2022/02/19 10:07:14;;;;;;;7.47;1.38;;;7.50;86.50;;;;;;4940108;29;20054;-78
2022/02/19 10:09:43;;;;;;;6.22;1.20;;;7.50;86.50;;;;;;4953666;28;20134;-78
2022/02/19 10:12:13;;;;;;;5.43;1.00;;;7.50;86.20;;;;;;4953834;29;20043;-79
2022/02/19 10:14:40;;;;;;;6.78;1.15;;;7.30;85.50;;;;;;4954247;29;20130;-78
2022/02/19 10:17:15;;;;;;;6.68;1.20;;;7.40;86.80;;;;;;4954947;29;20047;-78
2022/02/19 10:19:55;;;;;;;5.07;1.02;;;7.30;87.30;;;;;;4955153;29;20058;-77
2022/02/19 10:22:25;;;;;;;5.55;1.60;;;7.30;87.70;;;;;;4934473;29;20061;-79
2022/02/19 10:24:55;;;;;;;9.23;1.40;;;7.30;88.20;;;;;;4935187;29;20044;-77
2022/02/19 10:27:23;;;;;;;6.00;1.15;;;7.30;87.80;;;;;;4935882;29;20130;-78
2022/02/19 10:29:56;;;;;;;6.97;1.30;;;7.30;86.80;;;;;;4935663;29;20143;-79
2022/02/19 10:32:25;;;;;;;5.10;1.10;;;7.20;86.50;;;;;;4935615;29;20062;-79
2022/02/19 10:34:58;;;;;;;7.18;1.35;;;7.20;86.80;;;;;;4935807;29;20059;-80
2022/02/19 10:37:26;;;;;;;6.57;1.27;;;7.30;86.80;;;;;;4935789;29;20134;-77
2022/02/19 10:39:53;;;;;;;5.07;1.02;;;7.40;86.80;;;;;;4936181;29;20059;-79
2022/02/19 10:42:34;;;;;;;7.47;1.50;;;7.50;85.20;;;;;;4936210;29;20051;-77
2022/02/19 10:45:09;;;;;;;5.80;1.15;;;7.60;84.90;;;;;;4935466;29;20134;-79
2022/02/19 10:47:37;;;;;;;;;;;7.70;83.30;;;;;;4935950;29;20083;-78
2022/02/19 10:50:08;;;;;;;4.28;1.10;;;7.80;84.10;;;;;;4935000;29;19933;-78
2022/02/19 10:52:35;;;;;;;5.20;0.85;;;7.80;83.40;;;;;;4935612;29;20056;-78
2022/02/19 10:55:07;;;;;;;4.75;0.90;;;7.80;82.90;;;;;;4935283;29;20043;-77
2022/02/19 10:57:38;;;;;;;4.97;1.10;;;7.80;82.20;;;;;;4935212;29;20080;-79
2022/02/19 11:00:14;;;;;;;7.35;1.25;;;7.80;83.50;;;;;;4935109;29;20115;-79
2022/02/19 11:02:44;;;;;;;6.22;1.10;;;7.90;83.80;;;;;;4934972;29;20136;-78
2022/02/19 11:05:12;;;;;;;3.55;1.08;;;8.10;83.70;;;;;;4935489;29;20515;-77
2022/02/19 11:07:41;;;;;;;5.70;1.20;;;8.10;82.80;;;;;;4935086;29;20142;-79
2022/02/19 11:10:11;;;;;;;5.78;1.02;;;8.20;82.30;;;;;;4935450;29;20132;-77
2022/02/19 11:12:38;;;;;;;6.15;1.20;;;8.10;81.90;;;;;;4935278;29;20386;-79
2022/02/19 11:15:08;;;;;;;6.47;1.13;;;8.10;81.60;;;;;;4935255;29;20125;-80
2022/02/19 11:17:36;;;;;;;5.65;1.17;;;8.10;79.80;;;;;;4935069;29;20047;-79
2022/02/19 11:20:08;;;;;;;6.55;1.20;;;8.10;80.00;;;;;;4935367;29;20066;-79
2022/02/19 11:22:38;;;;;;;5.53;1.13;;;8.20;79.20;;;;;;4936929;29;20078;-79
2022/02/19 11:25:08;;;;;;;6.30;1.30;;;8.20;78.90;;;;;;4938729;29;20126;-80
2022/02/19 11:27:41;;;;;;;6.35;1.13;;;8.20;79.10;;;;;;4940046;29;20058;-78
2022/02/19 11:30:10;;;;;;;5.68;1.10;;;8.20;78.00;;;;;;4940220;29;20083;-79
2022/02/19 11:32:40;;;;;;;6.20;1.10;;;8.20;77.80;;;;;;4938470;29;20044;-78
2022/02/19 11:35:10;;;;;;;6.20;1.73;;;8.20;77.40;;;;;;4939032;29;20058;-76
2022/02/19 11:37:43;;;;;;;7.57;1.20;;;8.30;77.20;;;;;;4938515;29;20048;-79
2022/02/19 11:40:13;;;;;;;4.57;1.10;;;8.30;77.40;;;;;;4938384;29;20055;-80
2022/02/19 11:42:45;;;;;;;4.03;1.00;;;8.40;78.00;;;;;;4938656;29;20135;-79
2022/02/19 11:45:28;;;;;;;5.97;1.45;;;8.40;78.40;;;;;;4938165;29;20059;-78
2022/02/19 11:48:28;;;;;;;5.55;1.40;;;8.40;78.90;;;;;;4938422;29;20051;-79
2022/02/19 11:53:52;;;;;;;4.25;1.20;;;8.30;78.80;;;;;;5111284;27;20569;-79
2022/02/19 11:56:32;;;;;;;6.93;1.20;;;8.50;77.00;;;;;;5090401;28;20499;-76
2022/02/19 11:59:01;;;;;;;7.45;1.33;;;8.50;76.70;;;;;;5090634;28;20665;-78
2022/02/19 12:01:29;;;;;;;8.48;1.30;;;8.60;75.90;;;;;;5090614;28;20075;-79
2022/02/19 12:04:16;;;;;;;4.90;1.20;;;8.40;76.10;;;;;;5090577;28;20093;-77
2022/02/19 12:06:45;;;;;;;4.88;1.23;;;8.50;76.90;;;;;;5090066;28;20044;-76
2022/02/19 12:09:16;;;;;;;4.05;1.33;;;8.40;76.40;;;;;;5090041;28;20132;-80
2022/02/19 12:12:05;;;;;;;4.93;1.55;;;8.50;77.10;;;;;;5090345;28;20076;-78
2022/02/19 12:15:01;;;;;;;3.20;0.93;;;8.50;77.50;;;;;;5081607;28;20143;-80
2022/02/19 12:17:49;;;;;;;5.75;1.23;;;8.50;76.30;;;;;;5083347;28;20071;-77
2022/02/19 12:20:29;;;;;;;4.50;1.20;;;8.60;77.10;;;;;;5070146;28;20192;-80
2022/02/19 12:23:01;;;;;;;4.22;1.08;;;8.80;76.60;;;;;;5068588;28;20137;-78
2022/02/19 12:26:07;;;;;;;4.15;0.90;;;8.70;75.00;;;;;;5069514;28;20064;-78
2022/02/19 12:28:36;;;;;;;3.67;0.95;;;8.80;73.40;;;;;;5069533;28;20041;-77
2022/02/19 12:31:16;;;;;;;4.82;1.05;;;9.00;74.40;;;;;;5069873;28;20049;-78
2022/02/19 12:33:47;;;;;;;4.38;1.10;;;9.10;72.10;;;;;;5069860;28;20087;-76
2022/02/19 12:36:15;;;;;;;5.57;1.20;;;9.20;72.80;;;;;;5072239;28;20041;-77
2022/02/19 12:38:48;;;;;;;5.40;1.40;;;9.20;72.10;;;;;;5084414;28;20041;-76
2022/02/19 12:41:17;;;;;;;4.90;1.00;;;9.30;72.30;;;;;;5086420;28;20048;-79
2022/02/19 12:44:09;;;;;;;7.45;1.50;;;9.40;72.00;;;;;;5078143;28;20052;-80
2022/02/19 12:46:38;;;;;;;5.55;1.48;;;9.50;71.00;;;;;;5074640;28;20048;-78
2022/02/19 12:49:06;;;;;;;5.13;1.20;;;9.50;70.00;;;;;;5079688;28;20044;-78
2022/02/19 12:51:33;;;;;;;4.32;1.35;;;9.50;69.80;;;;;;5080417;28;20128;-77
2022/02/19 12:54:00;;;;;;;5.07;1.20;;;9.50;70.50;;;;;;5080694;28;20063;-78
2022/02/19 12:56:39;;;;;;;5.03;1.10;;;9.50;71.30;;;;;;5069949;28;20104;-78
2022/02/19 12:59:07;;;;;;;5.15;1.08;;;9.80;71.90;;;;;;5077131;28;20044;-79
2022/02/19 13:01:34;;;;;;;5.50;1.10;;;9.90;70.70;;;;;;5069629;28;20048;-79
2022/02/19 13:04:01;;;;;;;5.70;1.33;;;10.00;70.20;;;;;;5070084;28;20489;-77
2022/02/19 13:06:31;;;;;;;6.35;1.30;;;10.10;69.10;;;;;;5070397;28;20124;-77
2022/02/19 13:09:01;;;;;;;3.58;1.00;;;10.10;68.70;;;;;;5064417;28;20057;-78
2022/02/19 13:11:30;;;;;;;4.38;1.08;;;10.20;69.30;;;;;;5068007;28;20086;-77
2022/02/19 13:14:05;;;;;;;5.47;1.38;;;10.30;68.90;;;;;;5060148;28;20055;-77
2022/02/19 13:16:32;;;;;;;4.95;1.00;;;10.60;67.40;;;;;;5064591;28;20040;-79
2022/02/19 13:18:59;;;;;;;4.35;1.30;;;10.70;67.50;;;;;;5067327;28;20127;-78
2022/02/19 13:21:30;;;;;;;4.40;0.98;;;10.90;66.70;;;;;;5063496;28;20076;-78
2022/02/19 13:23:58;;;;;;;5.10;1.45;;;11.10;66.20;;;;;;5063053;28;20044;-79
2022/02/19 13:26:27;;;;;;;6.43;1.20;;;11.20;66.50;;;;;;5069814;28;20041;-79
2022/02/19 13:28:58;;;;;;;4.72;1.10;;;11.30;66.00;;;;;;5063431;28;20044;-77
2022/02/19 13:31:27;;;;;;;7.40;1.00;;;11.40;64.10;;;;;;5059468;28;20131;-80
2022/02/19 13:33:55;;;;;;;2.55;1.00;;;11.30;63.80;;;;;;5059994;28;20052;-78
2022/02/19 13:36:24;;;;;;;5.65;1.00;;;11.30;64.40;;;;;;5059689;28;20187;-78
2022/02/19 13:38:51;;;;;;;4.13;1.08;;;11.60;62.90;;;;;;5066449;28;20075;-78
2022/02/19 13:41:18;;;;;;;4.75;1.10;;;11.50;63.10;;;;;;5065505;28;20131;-77
2022/02/19 13:43:46;;;;;;;3.50;0.93;;;11.70;63.30;;;;;;5066335;28;20465;-76
2022/02/19 13:46:16;;;;;;;4.30;1.20;;;11.90;62.80;;;;;;5065838;28;20124;-80
2022/02/19 13:48:55;;;;;;;4.50;0.90;;;12.20;62.90;;;;;;5065715;28;20098;-77
2022/02/19 13:51:33;;;;;;;4.45;0.90;;;12.50;62.20;;;;;;5047789;28;20064;-77
2022/02/19 13:54:16;;;;;;;5.32;1.17;;;12.90;63.30;;;;;;5053731;28;20096;-78
2022/02/19 13:56:49;;;;;;;4.07;0.95;;;14.00;53.30;;;;;;5059629;28;20052;-79
2022/02/19 13:59:20;;;;;;;4.22;1.23;;;14.30;43.20;;;;;;5064821;28;20048;-80
2022/02/19 14:01:51;;;;;;;4.53;1.42;;;15.90;42.60;;;;;;5070336;28;20048;-80
2022/02/19 14:04:32;;;;;;;4.25;1.00;;;18.10;56.10;;;;;;5064152;28;20076;-80
2022/02/19 14:07:09;;;;;;;4.60;1.38;;;19.70;37.10;;;;;;5064282;28;20047;-77
2022/02/19 14:09:37;;;;;;;3.35;0.93;;;;;;;;;;5067610;28;20575;-79
2022/02/19 14:12:09;;;;;;;3.72;1.08;;;24.00;42.80;;;;;;5060793;28;20080;-78
2022/02/19 14:14:38;;;;;;;4.18;1.20;;;;;;;;;;5054115;28;20135;-79
2022/02/19 14:17:19;;;;;;;4.15;1.20;;;;;;;;;;5054895;28;20513;-80
2022/02/19 14:19:56;;;;;;;4.32;1.40;;;;;;;;;;5060246;28;20044;-80
2022/02/19 14:22:36;;;;;;;4.07;1.00;;;;;;;;;;5060649;28;20059;-77
2022/02/19 14:25:06;;;;;;;3.90;1.10;;;;;;;;;;5068163;28;20051;-80
2022/02/19 14:27:51;;;;;;;4.78;1.20;;;;;;;;;;5058525;28;20044;-80
2022/02/19 14:30:21;;;;;;;4.85;1.15;;;;;;;;;;5070566;28;20108;-81
2022/02/19 14:32:51;;;;;;;5.90;1.33;;;26.50;28.00;;;;;;5081039;28;20048;-81
2022/02/19 14:35:18;;;;;;;5.47;1.10;;;26.80;28.40;;;;;;5066775;28;20422;-82
2022/02/19 14:37:45;;;;;;;3.60;1.17;;;27.60;28.20;;;;;;5064898;28;20131;-82
2022/02/19 14:40:14;;;;;;;5.47;1.27;;;27.70;27.60;;;;;;5062924;28;20049;-81
2022/02/19 14:42:41;;;;;;;3.63;1.13;;;27.90;27.40;;;;;;5064670;28;20178;-80
2022/02/19 14:45:10;;;;;;;4.00;1.13;;;27.60;27.50;;;;;;5059579;28;20131;-85
2022/02/19 14:47:39;;;;;;;4.93;1.23;;;27.30;27.40;;;;;;5074538;28;20112;-85
2022/02/19 14:50:09;;;;;;;5.10;1.40;;;26.90;27.70;;;;;;5074541;28;20040;-81
2022/02/19 14:52:37;;;;;;;4.07;1.08;;;;;;;;;;5069095;28;20132;-78
2022/02/19 14:55:05;;;;;;;4.63;1.10;;;;;;;;;;5071382;28;20556;-80
2022/02/19 14:57:32;;;;;;;3.80;1.25;;;;;;;;;;5065803;28;20049;-78
2022/02/19 15:00:00;;;;;;;6.15;1.25;;;26.20;27.00;;;;;;5051301;28;20477;-78
2022/02/19 15:02:27;;;;;;;4.38;1.38;;;26.00;27.20;;;;;;5053132;28;20056;-80
2022/02/19 15:04:54;;;;;;;5.18;1.30;;;25.80;27.30;;;;;;5059839;28;20055;-78
2022/02/19 15:07:22;;;;;;;3.83;1.02;;;26.20;27.40;;;;;;5071748;28;20094;-77
2022/02/19 15:09:49;;;;;;;4.22;1.10;;;26.00;27.60;;;;;;5070687;28;20131;-77
2022/02/19 15:12:17;;;;;;;4.22;1.27;;;25.90;27.80;;;;;;5071424;28;20048;-77
2022/02/19 15:14:44;;;;;;;5.85;1.35;;;25.60;27.80;;;;;;5053317;28;20136;-77
2022/02/19 15:17:11;;;;;;;4.82;1.20;;;25.30;28.00;;;;;;5051489;28;20071;-76
2022/02/19 15:19:38;;;;;;;3.75;1.02;;;25.00;28.00;;;;;;5056480;28;20059;-78
2022/02/19 15:22:07;;;;;;;5.35;1.25;;;25.00;28.20;;;;;;5066165;28;20050;-79
2022/02/19 15:24:38;;;;;;;4.57;1.40;;;24.90;28.10;;;;;;5058957;28;20049;-78
2022/02/19 15:27:06;;;;;;;4.18;1.20;;;24.80;28.20;;;;;;5060446;28;20048;-79
2022/02/19 15:29:34;;;;;;;4.28;1.10;;;24.40;28.50;;;;;;5059137;28;20049;-77
2022/02/19 15:32:01;;;;;;;4.05;1.25;;;24.20;28.50;;;;;;5059551;28;20059;-79
2022/02/19 15:34:31;;;;;;;4.70;1.42;;;24.30;28.70;;;;;;5062592;28;20152;-75
2022/02/19 15:36:59;;;;;;;5.30;1.50;;;24.30;28.60;;;;;;5062734;28;20107;-77
2022/02/19 15:39:26;;;;;;;4.32;1.23;;;23.80;28.70;;;;;;5060255;28;20124;-79
2022/02/19 15:41:54;;;;;;;4.68;1.20;;;23.30;28.90;;;;;;5060170;28;20057;-79
2022/02/19 15:44:21;;;;;;;10.98;6.00;;;23.10;32.00;;;;;;5055952;28;20577;-78
2022/02/19 15:46:49;;;;;;;6.40;1.40;;;;;;;;;;5059717;28;20049;-78
2022/02/19 15:49:16;;;;;;;5.40;1.40;;;21.40;29.80;;;;;;5059507;28;20114;-77
2022/02/19 15:51:43;;;;;;;5.60;1.42;;;21.00;30.80;;;;;;5058577;28;20057;-80
2022/02/19 15:54:10;;;;;;;4.15;1.30;;;20.70;30.90;;;;;;5058803;28;20088;-78
2022/02/19 15:56:37;;;;;;;4.22;1.38;;;20.70;31.40;;;;;;5057253;28;20061;-79
2022/02/19 15:59:07;;;;;;;4.93;1.20;;;21.30;31.20;;;;;;5052057;28;20405;-78
2022/02/19 16:01:35;;;;;;;5.20;1.30;;;21.90;30.90;;;;;;5063753;28;20044;-80
2022/02/19 16:04:02;;;;;;;4.70;1.50;;;22.10;30.00;;;;;;5061769;28;20480;-77
2022/02/19 16:06:29;;;;;;;4.75;1.77;;;22.20;30.00;;;;;;5057513;28;20546;-80
2022/02/19 16:08:57;;;;;;;4.07;1.23;;;22.10;30.00;;;;;;5051659;28;20063;-79
2022/02/19 16:11:24;;;;;;;4.03;1.30;;;22.10;30.10;;;;;;5063786;28;20049;-76
2022/02/19 16:13:51;;;;;;;4.47;1.27;;;21.90;30.00;;;;;;5066932;28;20829;-78
2022/02/19 16:16:19;;;;;;;3.53;1.15;;;21.30;30.00;;;;;;5072230;28;20055;-78
2022/02/19 16:18:46;;;;;;;4.25;1.30;;;20.50;30.40;;;;;;5060434;28;20048;-79
2022/02/19 16:21:15;;;;;;;5.43;1.70;;;19.70;31.40;;;;;;5053530;28;20131;-78
2022/02/19 16:23:42;;;;;;;5.93;1.50;;;;;;;;;;5059842;28;20055;-78
2022/02/19 16:26:10;;;;;;;3.15;1.20;;;;;;;;;;5061122;28;20459;-79
2022/02/19 16:28:37;;;;;;;6.63;1.48;;;16.80;33.90;;;;;;5055158;28;20048;-79
2022/02/19 16:31:04;;;;;;;4.32;1.10;;;16.20;35.00;;;;;;5053006;28;20061;-79
2022/02/19 16:33:33;;;;;;;4.13;1.20;;;15.40;36.40;;;;;;5058462;28;20048;-78
2022/02/19 16:36:05;;;;;;;3.83;1.05;;;14.80;37.50;;;;;;5062794;28;20489;-78
2022/02/19 16:38:32;;;;;;;4.22;1.08;;;14.20;38.40;;;;;;5065336;28;20044;-80
2022/02/19 16:40:59;;;;;;;5.55;1.10;;;13.50;39.50;;;;;;5065600;28;20059;-80
2022/02/19 16:43:27;;;;;;;5.47;1.20;;;12.80;40.50;;;;;;5060993;28;20040;-78
2022/02/19 16:45:55;;;;;;;6.28;1.50;;;12.30;41.60;;;;;;5063056;28;20051;-77
2022/02/19 16:48:22;;;;;;;6.57;2.47;;;11.80;42.30;;;;;;5061777;28;20136;-80
2022/02/19 16:50:50;;;;;;;4.78;1.83;;;11.50;43.20;;;;;;5054795;28;20131;-77
2022/02/19 16:53:18;;;;;;;6.05;1.73;;;11.10;44.00;;;;;;5056048;28;20080;-78
2022/02/19 16:55:45;;;;;;;5.90;1.50;;;10.80;44.40;;;;;;5062215;28;20099;-79
2022/02/19 16:58:12;;;;;;;5.63;1.42;;;10.50;44.80;;;;;;5056789;28;20045;-78
2022/02/19 17:00:40;;;;;;;4.65;1.40;;;10.30;45.40;;;;;;5058274;28;20131;-78
2022/02/19 17:03:07;;;;;;;6.35;1.60;;;10.10;45.70;;;;;;5057236;28;20132;-78
2022/02/19 17:05:35;;;;;;;7.93;1.65;;;9.90;46.10;;;;;;5057726;28;20098;-78
2022/02/19 17:08:04;;;;;;;5.10;1.60;;;9.70;46.50;;;;;;5057495;28;20072;-80
2022/02/19 17:10:31;;;;;;;4.22;1.42;;;9.60;46.90;;;;;;5056330;28;20486;-79
2022/02/19 17:13:02;;;;;;;4.13;1.30;;;9.50;47.30;;;;;;5066949;28;20047;-80
2022/02/19 17:15:29;;;;;;;4.18;1.30;;;9.30;47.50;;;;;;5056109;28;20048;-80
2022/02/19 17:17:56;;;;;;;4.80;1.23;;;9.30;47.70;;;;;;5061284;28;20052;-78
2022/02/19 17:20:23;;;;;;;5.38;1.40;;;9.20;48.10;;;;;;5061759;28;20131;-78
2022/02/19 17:22:50;;;;;;;5.70;1.50;;;9.20;48.30;;;;;;5062637;28;20056;-78
2022/02/19 17:25:19;;;;;;;3.97;1.40;;;9.10;48.50;;;;;;5063075;28;20131;-78
2022/02/19 17:27:46;;;;;;;4.55;1.48;;;9.10;48.60;;;;;;5066713;28;20052;-78
2022/02/19 17:30:14;;;;;;;4.95;1.60;;;9.00;48.70;;;;;;5063077;28;20131;-79
2022/02/19 17:32:42;;;;;;;5.05;1.63;;;9.00;49.00;;;;;;5056102;28;20045;-78
2022/02/19 17:35:10;;;;;;;4.45;1.40;;;9.00;49.30;;;;;;5068675;28;20052;-78
2022/02/19 17:37:38;;;;;;;6.78;1.40;;;8.90;49.50;;;;;;5067500;28;20051;-76
2022/02/19 17:40:09;;;;;;;6.75;1.35;;;8.90;50.00;;;;;;5061064;28;20049;-79
2022/02/19 17:42:39;;;;;;;5.45;1.52;;;8.80;50.30;;;;;;5063764;28;20048;-79
2022/02/19 17:45:08;;;;;;;5.15;1.30;;;8.70;50.50;;;;;;5060486;28;20051;-79
2022/02/19 17:47:35;;;;;;;5.80;1.42;;;8.60;51.10;;;;;;5063280;28;20048;-80
2022/02/19 17:50:03;;;;;;;5.88;1.55;;;8.60;51.30;;;;;;5071092;28;20051;-80
2022/02/19 17:52:30;;;;;;;6.70;1.65;;;8.50;51.50;;;;;;5056477;28;20041;-80
2022/02/19 17:55:00;;;;;;;5.07;1.35;;;8.40;51.80;;;;;;5060293;28;20412;-81
2022/02/19 17:57:27;;;;;;;3.80;1.25;;;8.40;52.00;;;;;;5063875;28;20036;-80
2022/02/19 17:59:55;;;;;;;4.85;1.30;;;8.30;52.30;;;;;;5065088;28;20053;-79
2022/02/19 18:02:22;;;;;;;3.35;1.40;;;8.20;52.30;;;;;;5062884;28;20169;-77
2022/02/19 18:04:49;;;;;;;8.48;2.80;;;8.20;52.70;;;;;;5064530;28;20113;-79
2022/02/19 18:07:17;;;;;;;18.75;7.88;;;8.20;52.80;;;;;;5062832;28;20128;-78
2022/02/19 18:09:44;;;;;;;14.60;5.70;;;8.20;52.90;;;;;;5062488;28;20102;-78
2022/02/19 18:12:11;;;;;;;6.38;2.35;;;8.10;52.90;;;;;;5069441;28;20122;-79
2022/02/19 18:14:38;;;;;;;4.35;1.65;;;8.10;53.10;;;;;;5064335;28;20063;-77
2022/02/19 18:17:08;;;;;;;5.63;1.60;;;8.10;53.70;;;;;;5062795;28;20080;-76
2022/02/19 18:19:36;;;;;;;5.78;1.40;;;8.10;54.30;;;;;;5065396;28;20048;-76
2022/02/19 18:22:04;;;;;;;5.70;1.52;;;8.10;53.50;;;;;;5060540;28;20136;-75
2022/02/19 18:24:32;;;;;;;4.60;1.60;;;8.10;53.70;;;;;;5057882;28;20053;-75
2022/02/19 18:26:59;;;;;;;5.20;1.60;;;8.00;54.10;;;;;;5060767;28;20049;-77
2022/02/19 18:29:27;;;;;;;7.72;1.73;;;8.00;54.10;;;;;;5060682;28;20156;-77
2022/02/19 18:31:54;;;;;;;6.22;1.80;;;8.00;54.20;;;;;;5065444;28;20127;-75
2022/02/19 18:34:23;;;;;;;5.00;1.48;;;7.90;54.20;;;;;;5060905;28;20152;-75
2022/02/19 18:36:51;;;;;;;4.55;1.38;;;7.90;54.30;;;;;;5058906;28;20163;-76
2022/02/19 18:39:18;;;;;;;7.18;1.52;;;7.80;54.50;;;;;;5060546;28;20452;-77
2022/02/19 18:41:45;;;;;;;4.70;1.80;;;7.80;54.50;;;;;;5057051;28;20128;-80
2022/02/19 18:44:12;;;;;;;5.28;1.60;;;7.80;54.50;;;;;;5057398;28;20060;-79
2022/02/19 18:46:41;;;;;;;6.07;1.40;;;7.70;54.40;;;;;;5057716;28;20052;-80
2022/02/19 18:49:09;;;;;;;6.18;1.35;;;7.70;54.50;;;;;;5061500;28;20133;-80
2022/02/19 18:51:37;;;;;;;4.13;1.25;;;7.70;54.50;;;;;;5056323;28;20074;-78
2022/02/19 18:54:05;;;;;;;5.63;1.70;;;7.60;54.60;;;;;;5062360;28;20059;-78
2022/02/19 18:56:32;;;;;;;4.85;1.60;;;7.60;54.70;;;;;;5061970;28;20107;-77
2022/02/19 18:59:01;;;;;;;6.55;1.70;;;7.50;54.90;;;;;;5055811;28;20078;-78
2022/02/19 19:01:28;;;;;;;6.35;1.40;;;7.40;55.10;;;;;;5067426;28;20040;-79
2022/02/19 19:03:56;;;;;;;6.10;1.50;;;7.40;55.30;;;;;;5059970;28;20461;-78
2022/02/19 19:06:24;;;;;;;5.15;2.05;;;7.40;55.50;;;;;;5055619;28;20072;-78
2022/02/19 19:08:52;;;;;;;5.22;1.50;;;7.30;55.60;;;;;;5064269;28;20083;-78
2022/02/19 19:11:19;;;;;;;8.70;2.08;;;7.30;55.90;;;;;;5060763;28;20045;-78
2022/02/19 19:13:48;;;;;;;5.05;1.70;;;7.20;55.90;;;;;;5062877;28;20053;-77
2022/02/19 19:16:15;;;;;;;5.72;1.73;;;7.30;56.10;;;;;;5060886;28;20053;-77
2022/02/19 19:18:44;;;;;;;4.63;1.85;;;7.20;56.20;;;;;;5057070;28;20069;-79
2022/02/19 19:21:13;;;;;;;5.32;1.40;;;7.20;56.30;;;;;;5060947;28;20249;-77
2022/02/19 19:23:40;;;;;;;6.82;1.73;;;7.10;56.30;;;;;;5054875;28;20132;-78
2022/02/19 19:26:10;;;;;;;3.75;1.20;;;7.10;56.40;;;;;;5065535;28;20466;-78
2022/02/19 19:28:37;;;;;;;6.22;1.40;;;7.10;56.40;;;;;;5052005;28;20076;-77
2022/02/19 19:31:05;;;;;;;4.95;1.48;;;7.10;56.50;;;;;;5051656;28;20049;-80